createdAt,value
2022-09-06T00:00:31.070Z,2.80
2022-09-06T00:02:59.500Z,2.53
2022-09-06T00:05:32.090Z,3.10
2022-09-06T00:08:05.607Z,2.70
2022-09-06T00:10:34.207Z,2.72
2022-09-06T00:13:07.896Z,2.95
2022-09-06T00:15:37.122Z,2.78
2022-09-06T00:18:07.320Z,3.40
2022-09-06T00:20:41.453Z,2.70
2022-09-06T00:23:10.103Z,2.63
2022-09-06T00:25:38.489Z,2.85
2022-09-06T00:28:06.985Z,2.88
2022-09-06T00:30:35.382Z,3.00
2022-09-06T00:33:03.825Z,2.83
2022-09-06T00:35:32.200Z,2.65
2022-09-06T00:38:02.269Z,3.03
2022-09-06T00:40:34.086Z,2.97
2022-09-06T00:43:04.007Z,3.20
2022-09-06T00:45:33.097Z,3.00
2022-09-06T00:48:02.612Z,2.80
2022-09-06T00:50:30.975Z,2.83
2022-09-06T00:52:59.499Z,3.00
2022-09-06T00:55:28.804Z,2.60
2022-09-06T00:57:57.265Z,3.00
2022-09-06T01:00:25.656Z,3.20
2022-09-06T01:02:54.728Z,2.92
2022-09-06T01:05:32.690Z,3.10
2022-09-06T01:08:33.457Z,3.03
2022-09-06T01:11:39.618Z,2.90
2022-09-06T01:14:34.288Z,3.45
2022-09-06T01:17:30.513Z,3.30
2022-09-06T01:20:35.528Z,3.67
2022-09-06T01:23:29.879Z,3.78
2022-09-06T01:26:05.017Z,3.25
2022-09-06T01:28:37.490Z,3.40
2022-09-06T01:31:39.019Z,3.95
2022-09-06T01:34:07.388Z,4.15
2022-09-06T01:37:06.241Z,3.42
2022-09-06T01:39:34.097Z,3.47
2022-09-06T01:42:17.658Z,3.95
2022-09-06T01:45:08.805Z,3.63
2022-09-06T01:47:42.962Z,3.72
2022-09-06T01:50:28.882Z,3.20
2022-09-06T01:53:22.809Z,3.67
2022-09-06T01:56:03.282Z,3.65
2022-09-06T01:58:58.903Z,3.70
2022-09-06T02:01:45.251Z,3.78
2022-09-06T02:04:30.031Z,3.65
2022-09-06T02:07:02.794Z,3.90
2022-09-06T02:09:43.597Z,4.95
2022-09-06T02:12:14.114Z,3.85
2022-09-06T02:17:23.693Z,4.32
2022-09-06T02:19:52.139Z,4.50
2022-09-06T02:22:24.360Z,4.50
2022-09-06T02:24:55.086Z,4.30
2022-09-06T02:27:23.712Z,4.60
2022-09-06T02:29:52.680Z,4.57
2022-09-06T02:32:26.170Z,4.10
2022-09-06T02:34:56.495Z,3.80
2022-09-06T02:37:27.812Z,4.70
2022-09-06T02:39:56.594Z,4.57
2022-09-06T02:42:25.694Z,4.20
2022-09-06T02:44:53.984Z,4.75
2022-09-06T02:47:22.271Z,4.32
2022-09-06T02:49:50.691Z,4.93
2022-09-06T02:52:20.611Z,4.68
2022-09-06T02:54:48.945Z,4.45
2022-09-06T02:57:17.371Z,4.72
2022-09-06T02:59:46.459Z,4.57
2022-09-06T03:02:15.904Z,4.50
2022-09-06T03:04:44.336Z,5.00
2022-09-06T03:07:12.728Z,4.32
2022-09-06T03:09:41.701Z,5.32
2022-09-06T03:12:10.064Z,5.68
2022-09-06T03:14:38.423Z,4.60
2022-09-06T03:17:13.632Z,5.45
2022-09-06T03:19:42.053Z,4.75
2022-09-06T03:22:10.834Z,4.75
2022-09-06T03:24:39.142Z,5.03
2022-09-06T03:27:07.473Z,5.43
2022-09-06T03:29:35.915Z,5.47
2022-09-06T03:32:04.258Z,5.35
2022-09-06T03:34:32.878Z,5.25
2022-09-06T03:37:01.300Z,5.65
2022-09-06T03:39:29.851Z,5.10
2022-09-06T03:41:59.848Z,5.18
2022-09-06T03:44:28.314Z,5.38
2022-09-06T03:46:56.675Z,5.47
2022-09-06T03:49:25.134Z,5.68
2022-09-06T03:51:53.605Z,6.18
2022-09-06T03:54:22.035Z,5.57
2022-09-06T03:56:50.457Z,5.20
2022-09-06T03:59:21.621Z,5.20
2022-09-06T04:01:49.966Z,6.18
2022-09-06T04:04:18.331Z,5.78
2022-09-06T04:06:46.868Z,5.72
2022-09-06T04:09:15.554Z,5.53
2022-09-06T04:11:45.185Z,5.22
2022-09-06T04:14:13.661Z,5.68
2022-09-06T04:16:42.135Z,6.32
2022-09-06T04:19:10.515Z,5.15
2022-09-06T04:21:38.982Z,5.50
2022-09-06T04:24:07.399Z,5.88
2022-09-06T04:26:35.719Z,6.95
2022-09-06T04:29:04.157Z,5.13
2022-09-06T04:31:32.703Z,5.50
2022-09-06T04:34:01.104Z,5.10
2022-09-06T04:36:30.076Z,5.20
2022-09-06T04:38:58.500Z,5.65
2022-09-06T04:41:26.823Z,5.95
2022-09-06T04:43:55.153Z,6.00
2022-09-06T04:46:27.011Z,5.82
2022-09-06T04:48:56.405Z,5.97
2022-09-06T04:51:25.443Z,5.65
2022-09-06T04:53:54.461Z,5.70
2022-09-06T04:56:24.469Z,5.43
2022-09-06T04:58:55.447Z,5.38
2022-09-06T05:01:26.313Z,6.30
2022-09-06T05:03:56.987Z,6.22
2022-09-06T05:06:25.875Z,6.03
2022-09-06T05:08:54.297Z,6.63
2022-09-06T05:11:23.024Z,6.32
2022-09-06T05:13:51.420Z,6.07
2022-09-06T05:16:19.897Z,6.60
2022-09-06T05:18:51.317Z,6.13
2022-09-06T05:21:19.695Z,6.00
2022-09-06T05:23:48.063Z,6.15
2022-09-06T05:26:16.403Z,6.43
2022-09-06T05:28:44.709Z,6.05
2022-09-06T05:31:27.454Z,5.88
2022-09-06T05:33:57.442Z,6.50
2022-09-06T05:36:27.529Z,6.20
2022-09-06T05:38:57.071Z,6.82
2022-09-06T05:41:29.737Z,6.30
2022-09-06T05:43:58.312Z,6.90
2022-09-06T05:46:28.706Z,6.95
2022-09-06T05:49:01.254Z,7.78
2022-09-06T05:51:31.542Z,8.20
2022-09-06T05:53:59.983Z,7.13
2022-09-06T05:56:28.669Z,7.13
2022-09-06T05:58:57.866Z,6.68
2022-09-06T06:01:28.030Z,7.20
2022-09-06T06:04:02.453Z,7.68
2022-09-06T06:06:34.710Z,7.25
2022-09-06T06:09:03.801Z,7.80
2022-09-06T06:11:32.264Z,7.18
2022-09-06T06:14:01.303Z,6.40
2022-09-06T06:16:30.427Z,7.40
2022-09-06T06:18:59.013Z,7.43
2022-09-06T06:21:30.050Z,7.15
2022-09-06T06:24:01.183Z,6.80
2022-09-06T06:26:34.928Z,7.13
2022-09-06T06:29:06.014Z,7.47
2022-09-06T06:31:34.801Z,7.10
2022-09-06T06:34:04.186Z,8.55
2022-09-06T06:36:36.238Z,8.18
2022-09-06T06:39:08.736Z,7.82
2022-09-06T06:41:37.752Z,7.60
2022-09-06T06:44:23.792Z,7.90
2022-09-06T06:46:52.139Z,8.57
2022-09-06T06:49:20.608Z,8.38
2022-09-06T06:51:48.937Z,8.60
2022-09-06T06:54:17.417Z,8.68
2022-09-06T06:56:45.899Z,8.93
2022-09-06T06:59:15.780Z,7.72
2022-09-06T07:01:44.789Z,8.18
2022-09-06T07:04:14.291Z,8.27
2022-09-06T07:12:27.880Z,8.43
2022-09-06T07:14:56.620Z,8.93
2022-09-06T07:17:25.025Z,9.98
2022-09-06T07:22:42.270Z,11.73
2022-09-06T07:25:14.460Z,12.63
2022-09-06T07:30:20.192Z,11.68
2022-09-06T07:32:49.414Z,11.75
2022-09-06T07:35:20.309Z,11.35
2022-09-06T07:38:00.115Z,11.27
2022-09-06T07:40:30.804Z,11.30
2022-09-06T07:43:00.017Z,10.35
2022-09-06T07:45:28.817Z,9.77
2022-09-06T07:48:00.956Z,9.95
2022-09-06T07:50:49.609Z,9.32
2022-09-06T07:53:29.265Z,10.15
2022-09-06T07:56:01.306Z,9.63
2022-09-06T08:01:19.081Z,8.80
2022-09-06T08:03:48.486Z,9.15
2022-09-06T08:06:16.881Z,9.07
2022-09-06T08:09:01.162Z,8.90
2022-09-06T08:11:33.265Z,9.18
2022-09-06T08:14:04.390Z,7.82
2022-09-06T08:16:34.745Z,7.60
2022-09-06T08:19:08.864Z,8.20
2022-09-06T08:21:37.222Z,8.65
2022-09-06T08:24:09.897Z,9.20
2022-09-06T08:26:43.261Z,9.50
2022-09-06T08:29:13.585Z,9.63
2022-09-06T08:31:43.651Z,9.93
2022-09-06T08:34:14.399Z,9.98
2022-09-06T08:36:45.245Z,9.73
2022-09-06T08:39:13.527Z,9.73
2022-09-06T08:42:06.856Z,9.15
2022-09-06T08:44:59.244Z,7.80
2022-09-06T08:47:27.873Z,7.63
2022-09-06T08:50:07.054Z,7.20
2022-09-06T08:53:17.854Z,7.53
2022-09-06T08:55:59.670Z,7.35
2022-09-06T08:58:46.904Z,7.50
2022-09-06T09:01:25.283Z,8.52
2022-09-06T09:03:57.946Z,7.88
2022-09-06T09:06:27.676Z,7.85
2022-09-06T09:09:06.598Z,7.60
2022-09-06T09:11:40.445Z,7.93
2022-09-06T09:14:24.685Z,7.28
2022-09-06T09:16:55.385Z,6.88
2022-09-06T09:19:23.742Z,7.80
2022-09-06T09:21:52.139Z,8.10
2022-09-06T09:24:20.569Z,8.23
2022-09-06T09:26:57.483Z,7.82
2022-09-06T09:29:29.490Z,7.43
2022-09-06T09:31:59.866Z,7.55
2022-09-06T09:34:39.976Z,6.97
2022-09-06T09:40:08.392Z,6.60
2022-09-06T09:42:37.476Z,8.27
2022-09-06T09:45:21.500Z,8.45
2022-09-06T09:47:50.008Z,7.57
2022-09-06T09:50:34.178Z,7.07
2022-09-06T09:53:12.258Z,7.28
2022-09-06T09:55:42.214Z,7.60
2022-09-06T09:58:43.468Z,6.82
2022-09-06T10:01:18.611Z,7.13
2022-09-06T10:09:39.475Z,7.30
2022-09-06T10:12:08.491Z,7.07
2022-09-06T10:14:43.177Z,7.88
2022-09-06T10:17:43.605Z,7.35
2022-09-06T10:20:12.957Z,6.43
2022-09-06T10:22:47.322Z,6.60
2022-09-06T10:25:49.806Z,6.22
2022-09-06T10:28:36.867Z,7.20
2022-09-06T10:31:24.276Z,6.65
2022-09-06T10:36:39.122Z,7.15
2022-09-06T10:39:39.284Z,6.78
2022-09-06T10:42:35.183Z,6.30
2022-09-06T10:45:09.547Z,5.95
2022-09-06T10:47:56.485Z,6.70
2022-09-06T10:50:38.772Z,6.90
2022-09-06T10:53:32.152Z,6.88
2022-09-06T10:56:09.114Z,7.40
2022-09-06T11:01:54.286Z,6.18
2022-09-06T11:04:29.686Z,7.75
2022-09-06T11:07:14.575Z,6.30
2022-09-06T11:10:03.485Z,7.38
2022-09-06T11:13:06.942Z,5.97
2022-09-06T11:15:42.751Z,6.27
2022-09-06T11:18:29.986Z,6.72
2022-09-06T11:21:36.627Z,6.15
2022-09-06T11:24:13.927Z,5.90
2022-09-06T11:27:19.984Z,7.57
2022-09-06T11:29:56.660Z,6.88
2022-09-06T11:32:38.075Z,7.43
2022-09-06T11:35:11.829Z,7.30
2022-09-06T11:37:45.059Z,6.15
2022-09-06T11:42:59.454Z,7.07
2022-09-06T11:45:45.536Z,6.93
2022-09-06T11:48:35.231Z,6.63
2022-09-06T11:51:13.342Z,7.95
2022-09-06T11:53:52.039Z,7.07
2022-09-06T11:56:28.473Z,6.82
2022-09-06T11:59:04.404Z,6.00
2022-09-06T12:01:35.676Z,7.20
2022-09-06T12:04:07.598Z,8.07
2022-09-06T12:06:41.654Z,7.50
2022-09-06T12:09:46.382Z,6.35
2022-09-06T12:12:39.435Z,6.40
2022-09-06T12:15:52.359Z,6.65
2022-09-06T12:18:48.784Z,6.80
2022-09-06T12:21:32.432Z,6.70
2022-09-06T12:24:02.177Z,7.18
2022-09-06T12:27:07.320Z,6.55
2022-09-06T12:29:36.055Z,6.40
2022-09-06T12:32:06.442Z,6.00
2022-09-06T12:37:07.303Z,6.38
2022-09-06T12:39:36.219Z,6.80
2022-09-06T12:42:07.518Z,6.15
2022-09-06T12:44:40.621Z,6.53
2022-09-06T12:47:33.046Z,6.38
2022-09-06T12:50:20.167Z,6.80
2022-09-06T12:52:50.350Z,6.85
2022-09-06T12:55:39.330Z,6.82
2022-09-06T12:58:10.755Z,6.07
2022-09-06T13:00:47.654Z,6.70
2022-09-06T13:03:28.340Z,6.03
2022-09-06T13:06:02.882Z,7.03
2022-09-06T13:08:48.830Z,6.20
2022-09-06T13:11:26.031Z,5.90
2022-09-06T13:13:56.383Z,6.22
2022-09-06T13:16:31.826Z,5.35
2022-09-06T13:19:29.842Z,6.25
2022-09-06T13:22:02.462Z,6.82
2022-09-06T13:24:33.761Z,5.38
2022-09-06T13:27:22.805Z,5.82
2022-09-06T13:30:12.926Z,6.45
2022-09-06T13:32:48.361Z,6.32
2022-09-06T13:35:25.926Z,6.13
2022-09-06T13:38:31.165Z,6.85
2022-09-06T13:41:12.567Z,6.28
2022-09-06T13:43:45.498Z,6.65
2022-09-06T13:46:13.915Z,6.07
2022-09-06T13:48:44.691Z,5.70
2022-09-06T13:51:13.780Z,6.07
2022-09-06T13:53:45.138Z,5.97
2022-09-06T13:56:13.690Z,6.00
2022-09-06T13:58:43.831Z,6.78
2022-09-06T14:01:14.730Z,6.07
2022-09-06T14:03:43.577Z,6.78
2022-09-06T14:06:12.755Z,6.10
2022-09-06T14:09:05.895Z,5.75
2022-09-06T14:11:29.992Z,6.60
2022-09-06T14:13:58.573Z,6.13
2022-09-06T14:16:27.115Z,5.50
2022-09-06T14:18:56.359Z,6.30
2022-09-06T14:21:25.157Z,6.38
2022-09-06T14:23:54.081Z,5.80
2022-09-06T14:26:23.124Z,6.38
2022-09-06T14:28:51.695Z,7.57
2022-09-06T14:31:28.398Z,6.82
2022-09-06T14:34:02.301Z,5.82
2022-09-06T14:36:34.400Z,6.85
2022-09-06T14:39:04.040Z,6.05
2022-09-06T14:41:32.514Z,6.70
2022-09-06T14:44:04.423Z,6.68
2022-09-06T14:46:33.131Z,6.38
2022-09-06T14:49:07.280Z,6.53
2022-09-06T14:51:40.085Z,5.93
2022-09-06T14:54:11.359Z,6.80
2022-09-06T14:56:43.084Z,6.68
2022-09-06T14:59:12.215Z,6.10
2022-09-06T15:01:41.217Z,6.25
2022-09-06T15:04:10.704Z,6.93
2022-09-06T15:06:40.838Z,6.88
2022-09-06T15:09:24.166Z,6.95
2022-09-06T15:11:55.899Z,6.82
2022-09-06T15:14:28.088Z,6.22
2022-09-06T15:16:59.619Z,5.70
2022-09-06T15:19:29.614Z,6.70
2022-09-06T15:21:58.080Z,6.45
2022-09-06T15:24:28.753Z,5.65
2022-09-06T15:26:57.630Z,6.53
2022-09-06T15:29:27.374Z,6.00
2022-09-06T15:31:56.107Z,5.22
2022-09-06T15:34:26.498Z,6.85
2022-09-06T15:39:25.430Z,6.18
2022-09-06T15:41:54.005Z,5.53
2022-09-06T15:44:22.325Z,5.10
2022-09-06T15:46:54.030Z,5.57
2022-09-06T15:49:28.785Z,5.43
2022-09-06T15:51:58.767Z,6.25
2022-09-06T15:54:46.712Z,5.97
2022-09-06T15:57:17.047Z,5.40
2022-09-06T15:59:52.821Z,5.05
2022-09-06T16:02:21.325Z,6.32
2022-09-06T16:04:49.703Z,5.35
2022-09-06T16:07:18.289Z,5.65
2022-09-06T16:09:46.751Z,5.25
2022-09-06T16:12:15.079Z,5.90
2022-09-06T16:14:43.530Z,5.75
2022-09-06T16:17:12.346Z,4.82
2022-09-06T16:19:41.498Z,5.60
2022-09-06T16:22:18.970Z,5.30
2022-09-06T16:24:47.506Z,5.00
2022-09-06T16:27:16.162Z,5.55
2022-09-06T16:29:45.240Z,5.93
2022-09-06T16:32:20.193Z,4.72
2022-09-06T16:34:49.180Z,5.30
2022-09-06T16:37:17.667Z,4.60
2022-09-06T16:39:46.608Z,5.32
2022-09-06T16:42:15.032Z,5.28
2022-09-06T16:44:44.765Z,4.90
2022-09-06T16:47:16.444Z,5.82
2022-09-06T16:49:45.190Z,5.25
2022-09-06T16:52:14.596Z,5.15
2022-09-06T16:54:43.067Z,5.35
2022-09-06T16:57:11.373Z,4.90
2022-09-06T16:59:39.841Z,4.68
2022-09-06T17:02:08.718Z,4.72
2022-09-06T17:04:38.134Z,4.50
2022-09-06T17:07:06.612Z,4.90
2022-09-06T17:09:35.304Z,5.35
2022-09-06T17:12:04.834Z,4.75
2022-09-06T17:14:33.216Z,5.70
2022-09-06T17:17:07.645Z,7.10
2022-09-06T17:19:37.790Z,5.15
2022-09-06T17:22:06.324Z,5.53
2022-09-06T17:24:34.700Z,5.93
2022-09-06T17:27:04.414Z,4.85
2022-09-06T17:29:33.064Z,5.50
2022-09-06T17:32:03.893Z,5.00
2022-09-06T17:34:32.378Z,5.20
2022-09-06T17:37:00.821Z,5.88
2022-09-06T17:39:29.298Z,5.10
2022-09-06T17:41:59.116Z,5.55
2022-09-06T17:44:27.660Z,5.82
2022-09-06T17:47:12.007Z,4.97
2022-09-06T17:49:42.526Z,4.90
2022-09-06T17:52:11.987Z,5.88
2022-09-06T17:54:40.371Z,5.50
2022-09-06T17:57:08.717Z,5.10
2022-09-06T17:59:38.570Z,5.65
2022-09-06T18:02:07.517Z,5.35
2022-09-06T18:04:36.712Z,5.63
2022-09-06T18:07:05.266Z,5.65
2022-09-06T18:09:34.010Z,5.60
2022-09-06T18:12:02.863Z,5.25
2022-09-06T18:14:31.592Z,6.07
2022-09-06T18:16:59.985Z,5.53
2022-09-06T18:19:28.552Z,5.32
2022-09-06T18:21:57.817Z,4.90
2022-09-06T18:24:26.233Z,5.93
2022-09-06T18:26:55.410Z,5.18
2022-09-06T18:29:25.229Z,5.95
2022-09-06T18:31:54.128Z,5.57
2022-09-06T18:34:22.826Z,5.63
2022-09-06T18:36:51.327Z,5.80
2022-09-06T18:39:20.357Z,5.60
2022-09-06T18:42:00.843Z,5.93
2022-09-06T18:47:03.766Z,6.20
2022-09-06T18:49:33.765Z,5.85
2022-09-06T18:52:05.453Z,5.82
2022-09-06T18:54:34.773Z,5.25
2022-09-06T18:57:03.535Z,5.47
2022-09-06T18:59:31.972Z,6.03
2022-09-06T19:02:00.630Z,5.75
2022-09-06T19:04:29.276Z,5.63
2022-09-06T19:06:57.612Z,5.40
2022-09-06T19:09:26.027Z,5.57
2022-09-06T19:11:56.962Z,5.70
2022-09-06T19:14:26.137Z,5.43
2022-09-06T19:16:54.619Z,5.88
2022-09-06T19:19:23.329Z,5.03
2022-09-06T19:21:51.825Z,5.18
2022-09-06T19:24:22.770Z,4.97
2022-09-06T19:26:52.821Z,5.00
2022-09-06T19:29:21.331Z,5.00
2022-09-06T19:31:49.860Z,4.75
2022-09-06T19:34:18.845Z,4.85
2022-09-06T19:36:47.229Z,4.40
2022-09-06T19:39:16.823Z,4.80
2022-09-06T19:41:47.084Z,4.50
2022-09-06T19:44:16.916Z,5.13
2022-09-06T19:46:46.938Z,5.13
2022-09-06T19:51:48.074Z,5.05
2022-09-06T19:54:17.358Z,5.43
2022-09-06T19:56:48.057Z,4.53
2022-09-06T19:59:17.923Z,5.22
2022-09-06T20:01:47.784Z,4.95
2022-09-06T20:04:16.594Z,5.43
2022-09-06T20:06:46.701Z,5.10
2022-09-06T20:09:17.837Z,5.28
2022-09-06T20:11:46.436Z,5.13
2022-09-06T20:14:14.826Z,5.25
2022-09-06T20:16:43.423Z,5.03
2022-09-06T20:19:14.609Z,5.05
2022-09-06T20:21:43.262Z,5.55
2022-09-06T20:24:11.773Z,5.45
2022-09-06T20:26:40.698Z,5.10
2022-09-06T20:29:09.774Z,5.47
2022-09-06T20:31:38.587Z,5.22
2022-09-06T20:34:07.464Z,6.05
2022-09-06T20:36:36.206Z,5.80
2022-09-06T20:39:05.045Z,5.60
2022-09-06T20:41:34.571Z,5.53
2022-09-06T20:44:03.766Z,5.38
2022-09-06T20:46:35.131Z,4.97
2022-09-06T20:49:05.134Z,5.85
2022-09-06T20:51:36.049Z,5.20
2022-09-06T20:54:05.659Z,4.90
2022-09-06T20:56:38.497Z,5.20
2022-09-06T20:59:14.011Z,5.28
2022-09-06T21:01:45.845Z,5.15
2022-09-06T21:04:16.016Z,5.93
2022-09-06T21:06:51.089Z,5.45
2022-09-06T21:09:20.365Z,5.65
2022-09-06T21:11:48.747Z,5.53
2022-09-06T21:14:17.279Z,5.10
2022-09-06T21:16:46.038Z,4.70
2022-09-06T21:19:14.544Z,5.30
2022-09-06T21:21:44.115Z,5.40
2022-09-06T21:24:13.783Z,5.50
2022-09-06T21:26:46.346Z,5.82
2022-09-06T21:29:16.035Z,5.47
2022-09-06T21:31:45.371Z,4.85
2022-09-06T21:34:17.223Z,4.75
2022-09-06T21:36:46.090Z,5.53
2022-09-06T21:39:14.836Z,5.03
2022-09-06T21:41:44.073Z,4.68
2022-09-06T21:44:13.316Z,5.53
2022-09-06T21:46:43.108Z,4.68
2022-09-06T21:49:15.192Z,5.25
2022-09-06T21:51:43.709Z,5.00
2022-09-06T21:54:12.320Z,5.07
2022-09-06T21:56:41.542Z,4.95
2022-09-06T21:59:11.010Z,5.03
2022-09-06T22:01:40.827Z,4.93
2022-09-06T22:04:09.705Z,5.15
2022-09-06T22:06:38.671Z,5.57
2022-09-06T22:09:13.599Z,5.15
2022-09-06T22:11:51.279Z,4.82
2022-09-06T22:14:19.690Z,4.22
2022-09-06T22:16:48.984Z,5.07
2022-09-06T22:19:18.517Z,5.05
2022-09-06T22:21:47.027Z,5.43
2022-09-06T22:24:16.469Z,6.03
2022-09-06T22:26:45.761Z,5.43
2022-09-06T22:29:15.383Z,5.93
2022-09-06T22:31:43.975Z,5.57
2022-09-06T22:34:13.296Z,5.68
2022-09-06T22:36:44.811Z,4.95
2022-09-06T22:39:13.299Z,5.35
2022-09-06T22:41:41.852Z,5.70
2022-09-06T22:44:10.488Z,6.15
2022-09-06T22:46:38.997Z,5.20
2022-09-06T22:49:08.065Z,5.38
2022-09-06T22:51:36.511Z,5.35
2022-09-06T22:54:05.070Z,5.15
2022-09-06T22:56:33.744Z,5.15
2022-09-06T22:59:02.463Z,5.00
2022-09-06T23:01:32.813Z,4.95
2022-09-06T23:04:01.275Z,6.00
2022-09-06T23:06:29.643Z,6.38
2022-09-06T23:08:58.645Z,5.30
2022-09-06T23:11:28.171Z,4.80
2022-09-06T23:14:00.941Z,5.22
2022-09-06T23:16:29.655Z,5.30
2022-09-06T23:18:58.193Z,5.45
2022-09-06T23:21:27.083Z,5.75
2022-09-06T23:23:57.171Z,5.00
2022-09-06T23:26:29.540Z,5.20
2022-09-06T23:28:58.657Z,6.13
2022-09-06T23:31:32.791Z,5.80
2022-09-06T23:34:02.226Z,5.85
2022-09-06T23:36:31.987Z,5.53
2022-09-06T23:39:02.366Z,5.67
2022-09-06T23:41:31.198Z,5.32
2022-09-06T23:44:00.677Z,5.35
2022-09-06T23:46:30.641Z,5.70
2022-09-06T23:48:59.200Z,6.00
2022-09-06T23:51:27.968Z,5.75
2022-09-06T23:53:56.406Z,5.47
2022-09-06T23:56:24.980Z,6.03
2022-09-06T23:58:54.640Z,5.72
